Latest Weather Observations for Ulladulla

IDN60801

Issued at 8:03 pm EDT Saturday 16 December 2017 (issued every 30 minutes, with the page automatically refreshed every 10 minutes)

About weather observations | Map of weather stations | Latest weather observations for NSW | Other Formats
Station Details ID: 069138 Name: ULLADULLA AWS Lat: -35.36 Lon: 150.48 Height: 35.7 m
Data from the previous 72 hours. | See also: Recent months at Ulladulla
Date/Time
EDT
Temp
°C
App
Temp
°C
Dew
Point
°C
Rel
Hum
%
Delta-T
°C
Wind Press
QNH
hPa
Press
MSL
hPa
Rain since
9am
mm
Dir  Spd
km/h
Gust
km/h
Spd
kts
Gust
kts
16/08:00pm 20.8 20.4 18.9 89 1.2 SSW 19 28 10 15 1015.6 1015.5 0.0
16/07:30pm 21.1 22.3 19.0 88 1.3 SSW 11 17 6 9 1015.3 1015.2 0.0
16/07:00pm 21.2 21.9 18.9 87 1.4 SSW 13 24 7 13 1014.6 1014.5 0.0
16/06:30pm 21.6 21.2 19.0 85 1.6 SSW 19 28 10 15 1014.0 1013.9 0.0
16/06:00pm 21.9 21.5 19.3 85 1.7 SSW 20 30 11 16 1013.8 1013.7 0.0
16/05:30pm 23.0 23.3 19.6 81 2.2 S 17 22 9 12 1013.2 1013.1 0.0
16/05:00pm 23.6 24.0 19.9 80 2.4 SSE 17 22 9 12 1013.1 1013.0 0.0
16/04:30pm 22.3 21.7 19.7 85 1.7 S 22 32 12 17 1013.3 1013.2 0.0
16/04:00pm 22.5 21.4 19.5 83 1.9 SSW 24 33 13 18 1013.1 1013.0 0.0
16/03:30pm 23.2 22.5 20.2 83 1.9 SSW 24 35 13 19 1012.3 1012.2 0.0
16/03:00pm 22.4 19.6 19.4 83 1.9 S 33 48 18 26 1012.3 1012.2 0.0
16/02:51pm 23.4 20.7 19.3 78 2.6 S 32 50 17 27 1012.1 1012.0 0.0
16/02:46pm 23.4 20.4 18.7 75 3.0 S 32 50 17 27 1012.1 1012.0 0.0
16/02:30pm 26.3 26.7 19.9 68 4.2 SSW 17 32 9 17 1012.0 1011.9 0.0
16/02:00pm 26.8 27.7 17.6 57 5.8 E 9 22 5 12 1011.4 1011.3 0.0
16/01:30pm 26.6 27.4 19.0 63 4.9 N 13 32 7 17 1011.5 1011.4 0.0
16/01:00pm 25.6 26.1 18.3 64 4.6 NNE 13 20 7 11 1011.2 1011.1 0.0
16/12:30pm 25.7 25.7 18.9 66 4.4 NE 17 24 9 13 1011.5 1011.4 0.0
16/12:00pm 25.4 27.2 18.8 67 4.2 NNE 7 15 4 8 1011.9 1011.8 0.0
16/11:30am 26.6 28.3 18.5 61 5.2 NE 7 13 4 7 1012.1 1012.0 0.0
16/11:00am 25.8 27.1 18.5 64 4.6 NNE 9 13 5 7 1012.3 1012.2 0.0
16/10:30am 26.8 28.3 17.6 57 5.8 NNE 6 9 3 5 1012.4 1012.3 0.0
16/10:00am 26.5 28.6 18.9 63 4.9 N 6 9 3 5 1012.6 1012.5 0.0
16/09:30am 24.8 26.7 18.5 68 4.0 N 6 9 3 5 1012.6 1012.5 0.0
16/09:00am 22.7 24.8 18.9 79 2.4 N 6 7 3 4 1012.8 1012.7 0.0
16/08:30am 22.3 24.5 19.5 84 1.8 N 7 11 4 6 1012.7 1012.6 0.0
16/08:00am 21.3 24.9 21.3 100 0.0 N 4 6 2 3 1012.4 1012.3 0.0
16/07:30am 20.4 24.3 20.4 100 0.0 CALM 0 0 0 0 1012.4 1012.3 0.0
16/07:00am 20.1 23.1 20.1 100 0.0 N 4 6 2 3 1012.0 1011.9 0.0
16/06:30am 19.9 23.6 19.9 100 0.0 CALM 0 0 0 0 1011.7 1011.6 0.0
16/06:00am 19.8 23.4 19.8 100 0.0 CALM 0 0 0 0 1011.5 1011.4 0.0
16/05:30am 19.7 23.3 19.7 100 0.0 CALM 0 2 0 1 1011.2 1011.1 0.0
16/05:00am 19.6 23.1 19.6 100 0.0 CALM 0 4 0 2 1011.0 1010.9 0.0
16/04:30am 19.5 22.6 19.5 100 0.0 SSE 2 4 1 2 1010.7 1010.6 0.0
16/04:00am 19.6 22.0 19.6 100 0.0 S 6 9 3 5 1010.6 1010.5 0.0
16/03:30am 19.7 22.9 19.7 100 0.0 SSE 2 6 1 3 1010.7 1010.6 0.0
16/03:00am 19.9 22.8 19.9 100 0.0 SSW 4 6 2 3 1010.6 1010.5 0.0
16/02:30am 20.0 22.4 20.0 100 0.0 S 7 11 4 6 1010.5 1010.4 0.0
16/02:00am 20.1 22.5 20.1 100 0.0 SW 7 13 4 7 1010.5 1010.4 0.0
16/01:30am 19.9 22.2 19.9 100 0.0 SSW 7 9 4 5 1010.2 1010.1 0.0
16/01:00am 19.8 23.4 19.8 100 0.0 CALM 0 6 0 3 1010.5 1010.4 0.0
16/12:30am 19.8 22.7 19.8 100 0.0 SE 4 9 2 5 1010.6 1010.5 0.0
16/12:00am 20.0 22.4 20.0 100 0.0 S 7 9 4 5 1010.7 1010.6 0.0
 
Date/Time
EDT
Temp
°C
App
Temp
°C
Dew
Point
°C
Rel
Hum
%
Delta-T
°C
Wind Press
QNH
hPa
Press
MSL
hPa
Rain since
9am
mm
Dir  Spd
km/h
Gust
km/h
Spd
kts
Gust
kts
15/11:30pm 20.3 24.0 20.0 98 0.2 CALM 0 0 0 0 1011.2 1011.1 0.0
15/11:00pm 20.7 23.9 20.5 99 0.1 NNW 4 6 2 3 1011.3 1011.2 0.0
15/10:30pm 21.1 24.8 20.8 98 0.2 NNE 2 4 1 2 1011.5 1011.4 0.0
15/10:00pm 21.2 25.0 21.0 99 0.1 N 2 6 1 3 1011.6 1011.5 0.0
15/09:30pm 21.0 24.3 20.7 98 0.2 N 4 6 2 3 1011.4 1011.3 0.0
15/09:00pm 21.2 23.3 20.9 98 0.2 N 11 19 6 10 1010.8 1010.7 0.0
15/08:30pm 21.2 22.5 20.9 98 0.2 NNW 15 20 8 11 1010.8 1010.7 0.0
15/08:00pm 21.3 23.3 20.8 97 0.3 NNW 11 17 6 9 1010.6 1010.5 0.0
15/07:30pm 21.3 24.0 20.6 96 0.5 NNW 7 13 4 7 1010.4 1010.3 0.0
15/07:00pm 20.8 23.5 20.3 97 0.3 NNW 6 9 3 5 1010.2 1010.1 0.0
15/06:30pm 20.6 20.4 19.3 92 0.8 NNE 19 28 10 15 1010.1 1010.0 0.0
15/06:00pm 20.8 21.0 18.6 87 1.4 NE 15 22 8 12 1010.2 1010.1 0.0
15/05:30pm 21.1 22.1 18.7 86 1.5 NE 11 22 6 12 1010.2 1010.1 0.0
15/05:00pm 21.9 22.6 18.9 83 1.9 NE 13 22 7 12 1010.3 1010.2 0.0
15/04:30pm 22.1 22.7 18.7 81 2.1 NE 13 20 7 11 1010.6 1010.5 0.0
15/04:00pm 22.2 23.4 19.0 82 2.0 NE 11 17 6 9 1010.7 1010.6 0.0
15/03:30pm 21.8 22.2 18.2 80 2.2 ENE 13 20 7 11 1011.2 1011.1 0.0
15/03:00pm 21.5 22.1 17.7 79 2.4 ENE 11 20 6 11 1011.8 1011.7 0.0
15/02:30pm 22.3 23.4 17.9 76 2.7 E 9 15 5 8 1012.3 1012.2 0.0
15/02:00pm 22.1 23.3 18.3 79 2.4 ENE 9 17 5 9 1013.0 1012.9 0.0
15/01:30pm 21.5 22.7 17.3 77 2.6 ENE 7 15 4 8 1013.2 1013.1 0.0
15/01:00pm 21.1 22.6 17.5 80 2.2 ESE 6 9 3 5 1013.5 1013.4 0.0
15/12:30pm 20.5 21.8 17.5 83 1.8 E 7 11 4 6 1013.7 1013.6 0.0
15/12:00pm 20.6 22.6 17.8 84 1.7 N 4 6 2 3 1014.0 1013.9 0.0
15/11:30am 20.3 21.4 17.9 86 1.5 NNE 9 13 5 7 1013.9 1013.8 0.0
15/11:00am 20.0 21.0 17.8 87 1.4 NNE 9 15 5 8 1013.8 1013.7 0.0
15/10:30am 19.6 21.4 17.4 87 1.3 E 4 6 2 3 1014.3 1014.2 0.0
15/10:00am 19.6 21.0 17.4 87 1.3 S 6 9 3 5 1015.0 1014.9 0.0
15/09:30am 19.5 20.3 18.2 92 0.8 SSW 11 17 6 9 1015.2 1015.1 0.0
15/09:00am 19.6 20.9 18.4 93 0.7 SSW 9 13 5 7 1014.8 1014.7 0.2
15/08:30am 19.6 20.4 17.4 87 1.3 S 9 13 5 7 1014.6 1014.5 0.0
15/08:00am 19.8 20.6 17.2 85 1.6 S 9 13 5 7 1014.8 1014.7 0.0
15/07:30am 19.6 19.9 17.0 85 1.6 S 11 15 6 8 1014.6 1014.5 0.0
15/07:00am 19.4 18.9 17.0 86 1.5 S 15 19 8 10 1014.3 1014.2 0.0
15/06:30am 19.3 19.5 16.7 85 1.6 S 11 15 6 8 1013.8 1013.7 0.0
15/06:00am 19.3 19.9 16.9 86 1.5 S 9 15 5 8 1013.6 1013.5 0.0
15/05:30am 19.4 18.9 17.0 86 1.5 S 15 20 8 11 1013.4 1013.3 0.0
15/05:00am 19.3 18.6 16.5 84 1.7 S 15 20 8 11 1012.8 1012.7 0.0
15/04:30am 19.5 18.1 17.1 86 1.5 S 20 26 11 14 1012.3 1012.2 0.0
15/04:00am 19.5 16.9 16.9 85 1.6 S 26 32 14 17 1011.7 1011.6 0.0
15/03:30am 19.5 16.1 16.7 84 1.7 S 30 35 16 19 1012.1 1012.0 0.0
15/03:00am 19.6 17.1 17.2 86 1.5 S 26 30 14 16 1012.3 1012.2 0.0
15/02:30am 19.7 18.6 17.3 86 1.5 S 19 28 10 15 1012.4 1012.3 0.0
15/02:00am 19.6 18.9 17.4 87 1.3 SSW 17 24 9 13 1012.2 1012.1 0.0
15/01:30am 19.7 17.7 17.3 86 1.5 S 24 32 13 17 1012.2 1012.1 0.0
15/01:00am 20.1 19.2 17.7 86 1.5 SSW 19 26 10 14 1012.2 1012.1 0.0
15/12:30am 20.2 19.0 17.6 85 1.6 SSW 20 32 11 17 1011.9 1011.8 0.0
15/12:00am 20.4 18.9 17.8 85 1.6 SSW 22 30 12 16 1012.0 1011.9 0.0
 
Date/Time
EDT
Temp
°C
App
Temp
°C
Dew
Point
°C
Rel
Hum
%
Delta-T
°C
Wind Press
QNH
hPa
Press
MSL
hPa
Rain since
9am
mm
Dir  Spd
km/h
Gust
km/h
Spd
kts
Gust
kts
14/11:30pm 20.6 18.5 18.0 85 1.6 SSW 26 35 14 19 1011.8 1011.7 0.0
14/11:00pm 20.9 18.5 18.3 85 1.6 SSW 28 43 15 23 1011.1 1011.0 0.0
14/10:30pm 21.3 19.0 18.5 84 1.8 SSW 28 39 15 21 1010.4 1010.3 0.0
14/10:00pm 21.7 21.7 18.9 84 1.8 SSW 17 26 9 14 1009.5 1009.4 0.0
14/09:30pm 23.0 23.8 19.0 78 2.5 SSW 13 20 7 11 1008.9 1008.8 0.0
14/09:00pm 22.2 23.7 19.0 82 2.0 SW 9 13 5 7 1008.0 1007.9 0.0
14/08:30pm 23.5 24.3 18.2 72 3.3 S 11 20 6 11 1008.1 1008.0 0.0
14/08:00pm 23.7 25.1 17.9 70 3.6 NNE 7 13 4 7 1006.7 1006.6 0.0
14/07:30pm 24.0 26.1 18.2 70 3.7 ENE 4 11 2 6 1006.0 1005.9 0.0
14/07:00pm 24.2 24.5 17.9 68 4.0 NNW 13 19 7 10 1006.0 1005.9 0.0
14/06:30pm 23.7 25.2 18.1 71 3.5 N 7 9 4 5 1004.6 1004.5 0.0
14/06:00pm 24.3 24.9 17.8 67 4.1 NNE 11 15 6 8 1004.3 1004.2 0.0
14/05:30pm 24.9 25.2 17.9 65 4.4 N 13 20 7 11 1004.4 1004.3 0.0
14/05:00pm 25.5 26.3 18.2 64 4.6 N 11 19 6 10 1004.2 1004.1 0.0
14/04:30pm 25.4 25.9 18.3 65 4.5 N 13 17 7 9 1004.1 1004.0 0.0
14/04:00pm 25.2 26.8 19.1 69 3.9 N 9 15 5 8 1004.0 1003.9 0.0
14/03:30pm 27.3 27.5 15.7 49 7.1 NE 9 15 5 8 1004.0 1003.9 0.0
14/03:22pm 29.3 29.3 13.5 38 9.4 ENE 6 9 3 5 1003.9 1003.8 0.0
14/03:00pm 34.5 34.8 14.4 30 12.4 WSW 6 11 3 6 1003.9 1003.8 0.0
14/02:30pm 34.6 35.3 15.5 32 12.0 E 6 15 3 8 1003.9 1003.8 0.0
14/02:00pm 37.7 35.5 10.9 20 16.0 W 13 32 7 17 1004.1 1004.0 0.0
14/01:30pm 36.3 33.8 9.8 20 15.4 WNW 13 24 7 13 1004.3 1004.2 0.0
14/01:00pm 35.7 32.3 9.3 20 15.2 NW 17 26 9 14 1004.6 1004.5 0.0
14/12:30pm 34.1 31.5 10.7 24 13.6 NW 15 26 8 14 1004.9 1004.8 0.0
14/12:19pm 32.4 31.3 12.1 29 12.0 NW 9 22 5 12 1004.9 1004.8 0.0
14/12:00pm 27.2 27.7 16.5 52 6.7 NNE 9 17 5 9 1005.0 1004.9 0.0
14/11:30am 25.5 26.5 18.7 66 4.3 NNE 11 19 6 10 1005.3 1005.2 0.0
14/11:00am 27.1 28.5 18.7 60 5.4 NNE 9 13 5 7 1005.6 1005.5 0.0
14/10:30am 28.6 29.4 17.2 50 7.2 NNE 9 19 5 10 1005.7 1005.6 0.0
14/10:00am 27.3 27.8 17.5 55 6.2 NNE 11 20 6 11 1005.7 1005.6 0.0
14/09:30am 24.8 26.1 18.5 68 4.0 N 9 15 5 8 1006.1 1006.0 0.0
14/09:00am 23.6 25.2 19.1 76 2.9 NNE 9 15 5 8 1006.1 1006.0 0.0
14/08:30am 22.0 23.3 19.2 84 1.8 NNE 11 15 6 8 1006.1 1006.0 0.0
14/08:00am 21.7 23.4 19.3 86 1.5 N 9 15 5 8 1006.4 1006.3 0.0
14/07:30am 21.0 22.3 19.3 90 1.1 N 11 15 6 8 1006.2 1006.1 0.0
14/07:00am 20.4 21.5 19.7 96 0.4 NNE 13 17 7 9 1006.1 1006.0 0.0
14/06:30am 20.1 21.8 19.4 96 0.4 N 9 13 5 7 1006.2 1006.1 0.0
14/06:00am 19.9 21.4 19.7 99 0.1 N 11 15 6 8 1006.0 1005.9 0.0
14/05:30am 19.7 21.5 19.5 99 0.1 N 9 13 5 7 1006.0 1005.9 0.0
14/05:00am 19.5 21.1 19.2 98 0.2 N 9 15 5 8 1005.7 1005.6 0.0
14/04:30am 19.5 20.9 19.5 100 0.0 N 11 15 6 8 1005.7 1005.6 0.0
14/04:00am 19.4 21.4 19.2 99 0.1 N 7 11 4 6 1005.9 1005.8 0.0
14/03:30am 19.6 21.8 19.3 98 0.2 NNW 6 9 3 5 1006.2 1006.1 0.0
14/03:00am 19.9 21.7 19.6 98 0.2 N 9 13 5 7 1006.3 1006.2 0.0
14/02:30am 20.1 22.4 19.4 96 0.4 N 6 9 3 5 1007.1 1007.0 0.0
14/02:00am 19.9 22.1 19.1 95 0.5 N 6 7 3 4 1007.5 1007.4 0.0
14/01:30am 20.5 22.5 18.8 90 1.1 N 6 9 3 5 1007.8 1007.7 0.0
14/01:00am 20.4 22.2 18.2 87 1.4 N 6 9 3 5 1008.1 1008.0 0.0
14/12:30am 20.1 22.6 18.2 89 1.2 N 2 4 1 2 1008.5 1008.4 0.0
14/12:00am 20.1 23.0 18.1 88 1.2 CALM 0 0 0 0 1008.7 1008.6 0.0
 
Date/Time
EDT
Temp
°C
App
Temp
°C
Dew
Point
°C
Rel
Hum
%
Delta-T
°C
Wind Press
QNH
hPa
Press
MSL
hPa
Rain since
9am
mm
Dir  Spd
km/h
Gust
km/h
Spd
kts
Gust
kts
13/11:30pm 20.6 22.6 18.7 89 1.2 N 6 7 3 4 1008.8 1008.7 0.0
13/11:00pm 20.7 22.9 19.7 94 0.6 N 7 11 4 6 1008.8 1008.7 0.0
13/10:30pm 20.9 22.7 18.8 88 1.3 N 7 13 4 7 1009.0 1008.9 0.0
13/10:00pm 21.1 22.6 18.9 87 1.4 NNW 9 13 5 7 1009.1 1009.0 0.0
13/09:30pm 21.3 22.0 18.9 86 1.5 N 13 22 7 12 1009.0 1008.9 0.0
13/09:00pm 21.4 22.9 18.8 85 1.6 NNW 9 15 5 8 1008.8 1008.7 0.0
13/08:30pm 21.5 23.5 18.7 84 1.8 N 6 11 3 6 1008.7 1008.6 0.0

Other Formats:

Comma delimited format used in spreadsheet applications
http://www.bom.gov.au/fwo/IDN60801/IDN60801.94938.axf

JavaScript Object Notation format (JSON) in row-major order
http://www.bom.gov.au/fwo/IDN60801/IDN60801.94938.json